createdAt,value
2019-01-26T00:00:28.810Z,95268.4
2019-01-26T00:01:31.235Z,95268.6
2019-01-26T00:02:33.394Z,95268.6
2019-01-26T00:03:35.819Z,95264.8
2019-01-26T00:04:37.948Z,95257.1
2019-01-26T00:05:40.363Z,95260.6
2019-01-26T00:06:42.789Z,95258.4
2019-01-26T00:07:45.214Z,95256.2
2019-01-26T00:08:47.366Z,95268.3
2019-01-26T00:09:49.513Z,95260.5
2019-01-26T00:10:51.950Z,95253.9
2019-01-26T00:11:54.376Z,95253.4
2019-01-26T00:12:56.503Z,95249.7
2019-01-26T00:13:58.943Z,95257
2019-01-26T00:15:01.373Z,95253.7
2019-01-26T00:16:03.630Z,95250.5
2019-01-26T00:17:06.063Z,95253.1
2019-01-26T00:18:08.490Z,95249.8
2019-01-26T00:19:10.923Z,95248.6
2019-01-26T00:20:13.341Z,95249.3
2019-01-26T00:21:15.761Z,95248.1
2019-01-26T00:22:17.658Z,95248
2019-01-26T00:23:19.810Z,95243.9
2019-01-26T00:24:22.231Z,95248.1
2019-01-26T00:25:24.659Z,95248.7
2019-01-26T00:26:26.516Z,95251.1
2019-01-26T00:27:28.394Z,95249.2
2019-01-26T00:28:30.250Z,95249.2
2019-01-26T00:29:32.380Z,95249.2
2019-01-26T00:30:34.533Z,95249.3
2019-01-26T00:31:36.972Z,95247.2
2019-01-26T00:32:39.403Z,95249.8
2019-01-26T00:34:46.810Z,95249.9
2019-01-26T00:35:49.238Z,95244.7
2019-01-26T00:36:51.670Z,95243.8
2019-01-26T00:37:54.092Z,95242.5
2019-01-26T00:38:56.518Z,95241.2
2019-01-26T00:39:58.669Z,95237.1
2019-01-26T00:41:01.117Z,95240.9
2019-01-26T00:42:03.523Z,95236
2019-01-26T00:43:05.973Z,95238.1
2019-01-26T00:44:08.412Z,95233.2
2019-01-26T00:45:10.004Z,95233.7
2019-01-26T00:46:12.172Z,95231.5
2019-01-26T00:47:14.610Z,95233.4
2019-01-26T00:48:17.042Z,95230.7
2019-01-26T00:49:19.210Z,95231.5
2019-01-26T00:50:21.066Z,95233.9
2019-01-26T00:51:23.498Z,95226.7
2019-01-26T00:52:25.360Z,95224.7
2019-01-26T00:53:27.783Z,95219.6
2019-01-26T00:54:30.212Z,95212.5
2019-01-26T00:55:32.642Z,95212
2019-01-26T00:56:35.068Z,95210.2
2019-01-26T00:57:37.500Z,95208.6
2019-01-26T00:58:39.922Z,95200.6
2019-01-26T00:59:42.356Z,95209
2019-01-26T01:00:44.222Z,95202.8
2019-01-26T01:01:46.639Z,95202.5
2019-01-26T01:02:49.066Z,95199.9
2019-01-26T01:03:51.506Z,95200.1
2019-01-26T01:04:53.944Z,95199.8
2019-01-26T01:05:56.102Z,95197
2019-01-26T01:06:58.532Z,95197.3
2019-01-26T01:08:00.960Z,95195.3
2019-01-26T01:09:03.382Z,95193.8
2019-01-26T01:10:05.811Z,95194.6
2019-01-26T01:11:07.968Z,95188.2
2019-01-26T01:12:09.828Z,95186.5
2019-01-26T01:13:11.978Z,95187.3
2019-01-26T01:14:14.131Z,95186.4
2019-01-26T01:15:16.273Z,95184.2
2019-01-26T01:16:18.173Z,95180
2019-01-26T01:17:20.610Z,95179.1
2019-01-26T01:18:23.036Z,95176.7
2019-01-26T01:19:25.461Z,95173.7
2019-01-26T01:20:27.889Z,95179.8
2019-01-26T01:21:30.018Z,95180.1
2019-01-26T01:22:32.178Z,95172.1
2019-01-26T01:23:34.220Z,95172.7
2019-01-26T01:24:36.382Z,95168
2019-01-26T01:25:38.527Z,95164.2
2019-01-26T01:26:40.666Z,95167.5
2019-01-26T01:27:42.798Z,95170.2
2019-01-26T01:28:45.239Z,95166.4
2019-01-26T01:29:47.656Z,95172.6
2019-01-26T01:30:50.089Z,95172.6
2019-01-26T01:31:52.247Z,95178
2019-01-26T01:32:54.392Z,95182
2019-01-26T01:33:56.814Z,95184.1
2019-01-26T01:34:59.240Z,95178
2019-01-26T01:36:01.673Z,95171.7
2019-01-26T01:37:03.564Z,95173.6
2019-01-26T01:38:05.989Z,95178.2
2019-01-26T01:39:08.138Z,95170.8
2019-01-26T01:40:10.291Z,95169.3
2019-01-26T01:41:12.731Z,95167.4
2019-01-26T01:42:14.888Z,95163.3
2019-01-26T01:43:17.312Z,95160.3
2019-01-26T01:44:19.740Z,95159.2
2019-01-26T01:45:21.893Z,95155.4
2019-01-26T01:46:24.316Z,95148.5
2019-01-26T01:47:26.741Z,95148.1
2019-01-26T01:48:29.174Z,95149.9
2019-01-26T01:49:31.614Z,95147.3
2019-01-26T01:50:34.038Z,95146.9
2019-01-26T01:51:36.478Z,95144.3
2019-01-26T01:52:39.221Z,95147.4
2019-01-26T01:53:41.782Z,95149
2019-01-26T01:54:43.954Z,95147.4
2019-01-26T01:55:46.383Z,95151.5
2019-01-26T01:56:48.273Z,95153.1
2019-01-26T01:57:50.430Z,95151.3
2019-01-26T01:58:52.582Z,95153.7
2019-01-26T01:59:54.736Z,95152.6
2019-01-26T02:00:57.155Z,95149.1
2019-01-26T02:01:59.298Z,95150.2
2019-01-26T02:03:01.722Z,95150.3
2019-01-26T02:04:04.152Z,95151
2019-01-26T02:05:06.285Z,95151.7
2019-01-26T02:06:08.152Z,95151.7
2019-01-26T02:07:10.022Z,95145.6
2019-01-26T02:08:12.467Z,95145.4
2019-01-26T02:09:14.892Z,95142.5
2019-01-26T02:10:17.325Z,95136.6
2019-01-26T02:11:19.766Z,95130
2019-01-26T02:12:21.913Z,95126
2019-01-26T02:13:24.075Z,95128.6
2019-01-26T02:14:26.501Z,95124.8
2019-01-26T02:15:28.639Z,95120.5
2019-01-26T02:16:30.787Z,95117.8
2019-01-26T02:17:32.929Z,95115.6
2019-01-26T02:18:35.352Z,95121.2
2019-01-26T02:19:37.791Z,95111.9
2019-01-26T02:20:39.414Z,95109.9
2019-01-26T02:21:41.847Z,95110.2
2019-01-26T02:22:44.004Z,95100.7
2019-01-26T02:23:46.423Z,95101.1
2019-01-26T02:24:48.280Z,95097.3
2019-01-26T02:25:50.844Z,95094.7
2019-01-26T02:26:53.346Z,95097.5
2019-01-26T02:27:55.202Z,95096.8
2019-01-26T02:28:57.617Z,95099.5
2019-01-26T02:30:00.051Z,95097
2019-01-26T02:31:02.303Z,95092
2019-01-26T02:32:04.734Z,95090.9
2019-01-26T02:33:07.147Z,95090.8
2019-01-26T02:34:09.296Z,95094.9
2019-01-26T02:35:11.746Z,95092.5
2019-01-26T02:36:14.183Z,95098.6
2019-01-26T02:37:16.349Z,95092.5
2019-01-26T02:38:18.789Z,95091.2
2019-01-26T02:39:21.217Z,95087.9
2019-01-26T02:40:23.662Z,95079.6
2019-01-26T02:41:26.095Z,95078.2
2019-01-26T02:42:28.522Z,95078.3
2019-01-26T02:43:30.944Z,95075.2
2019-01-26T02:44:33.394Z,95077
2019-01-26T02:45:35.812Z,95070.5
2019-01-26T02:46:38.244Z,95073.9
2019-01-26T02:47:40.417Z,95072.3
2019-01-26T02:48:42.841Z,95084
2019-01-26T02:49:45.275Z,95072.5
2019-01-26T02:50:47.426Z,95076.4
2019-01-26T02:51:49.574Z,95067.9
2019-01-26T02:52:51.722Z,95067.9
2019-01-26T02:53:53.867Z,95068.9
2019-01-26T02:54:56.293Z,95071.5
2019-01-26T02:55:58.714Z,95066.9
2019-01-26T02:57:01.139Z,95055.1
2019-01-26T02:58:03.293Z,95061.8
2019-01-26T02:59:05.717Z,95055.5
2019-01-26T03:00:08.144Z,95059.7
2019-01-26T03:01:10.285Z,95059.1
2019-01-26T03:02:12.714Z,95053.2
2019-01-26T03:03:15.138Z,95056.3
2019-01-26T03:04:17.563Z,95058.9
2019-01-26T03:05:19.996Z,95053.6
2019-01-26T03:06:22.150Z,95061.3
2019-01-26T03:07:24.579Z,95066.7
2019-01-26T03:08:27.016Z,95058.9
2019-01-26T03:09:29.173Z,95062.4
2019-01-26T03:10:31.591Z,95064.8
2019-01-26T03:11:33.743Z,95055.6
2019-01-26T03:12:35.889Z,95049.3
2019-01-26T03:13:38.313Z,95051.1
2019-01-26T03:14:40.737Z,95043.9
2019-01-26T03:15:43.132Z,95048.2
2019-01-26T03:16:45.282Z,95044.8
2019-01-26T03:17:47.154Z,95046.1
2019-01-26T03:18:49.571Z,95052.9
2019-01-26T03:19:51.993Z,95048.2
2019-01-26T03:20:54.422Z,95055.3
2019-01-26T03:21:56.571Z,95057.1
2019-01-26T03:22:59.024Z,95053.3
2019-01-26T03:24:01.454Z,95054.8
2019-01-26T03:25:03.613Z,95047.1
2019-01-26T03:26:05.765Z,95042.7
2019-01-26T03:27:07.922Z,95039.3
2019-01-26T03:28:10.069Z,95041.6
2019-01-26T03:29:12.231Z,95046.8
2019-01-26T03:30:14.667Z,95041.4
2019-01-26T03:31:17.113Z,95030.5
2019-01-26T03:32:19.353Z,95027.3
2019-01-26T03:33:21.805Z,95044.7
2019-01-26T03:34:23.663Z,95038.2
2019-01-26T03:35:26.082Z,95033.5
2019-01-26T03:36:28.521Z,95035
2019-01-26T03:37:30.682Z,95038.5
2019-01-26T03:38:33.103Z,95030.5
2019-01-26T03:39:35.535Z,95037.5
2019-01-26T03:40:37.137Z,95034.4
2019-01-26T03:41:39.321Z,95032.2
2019-01-26T03:42:41.753Z,95034.6
2019-01-26T03:43:44.179Z,95035.9
2019-01-26T03:44:46.605Z,95027.4
2019-01-26T03:45:49.024Z,95029.5
2019-01-26T03:46:51.180Z,95038.2
2019-01-26T03:47:53.328Z,95039.6
2019-01-26T03:48:55.764Z,95041.2
2019-01-26T03:49:57.933Z,95033.5
2019-01-26T03:50:59.813Z,95034.5
2019-01-26T03:52:02.229Z,95029.6
2019-01-26T03:53:04.654Z,95030.2
2019-01-26T03:54:07.079Z,95029
2019-01-26T03:55:09.506Z,95030.3
2019-01-26T03:56:11.941Z,95028.9
2019-01-26T03:57:14.374Z,95035.6
2019-01-26T03:58:16.803Z,95033.5
2019-01-26T03:59:19.240Z,95033.2
2019-01-26T04:00:21.664Z,95025.9
2019-01-26T04:01:24.082Z,95024.9
2019-01-26T04:02:26.505Z,95032.4
2019-01-26T04:03:28.650Z,95027.8
2019-01-26T04:04:30.538Z,95022.1
2019-01-26T04:05:32.972Z,95030.3
2019-01-26T04:06:35.403Z,95025.8
2019-01-26T04:07:37.264Z,95025.2
2019-01-26T04:08:39.700Z,95014.7
2019-01-26T04:09:41.855Z,95019.1
2019-01-26T04:10:44.274Z,95014.9
2019-01-26T04:11:46.701Z,95010.3
2019-01-26T04:12:49.134Z,95015.5
2019-01-26T04:13:51.566Z,95019.4
2019-01-26T04:14:53.178Z,95027.4
2019-01-26T04:15:55.604Z,95022.8
2019-01-26T04:16:58.032Z,95017.8
2019-01-26T04:17:59.907Z,95023.1
2019-01-26T04:19:02.068Z,95017
2019-01-26T04:20:04.498Z,95018.8
2019-01-26T04:21:06.646Z,95017
2019-01-26T04:22:09.076Z,95007.3
2019-01-26T04:23:11.506Z,95015.4
2019-01-26T04:24:13.934Z,95010.8
2019-01-26T04:25:16.366Z,95007.6
2019-01-26T04:26:18.521Z,95012
2019-01-26T04:27:20.958Z,95007.8
2019-01-26T04:28:23.109Z,95013.2
2019-01-26T04:29:25.582Z,95005.6
2019-01-26T04:30:28.024Z,94999.8
2019-01-26T04:31:30.194Z,94998.2
2019-01-26T04:32:32.623Z,95000.8
2019-01-26T04:33:34.764Z,94996.2
2019-01-26T04:34:37.186Z,94997
2019-01-26T04:35:39.604Z,94993.5
2019-01-26T04:36:42.045Z,94993.2
2019-01-26T04:37:44.199Z,94988.2
2019-01-26T04:38:46.623Z,94990.3
2019-01-26T04:39:49.045Z,94987.4
2019-01-26T04:40:51.471Z,94986.8
2019-01-26T04:41:53.659Z,94984.5
2019-01-26T04:42:55.787Z,94985.1
2019-01-26T04:43:57.934Z,94986.1
2019-01-26T04:44:59.552Z,94987.4
2019-01-26T04:46:01.976Z,94983.2
2019-01-26T04:47:04.402Z,94979
2019-01-26T04:48:06.830Z,94993.9
2019-01-26T04:49:09.250Z,94985.5
2019-01-26T04:50:11.675Z,94979.2
2019-01-26T04:51:13.535Z,94985.2
2019-01-26T04:52:15.692Z,94982
2019-01-26T04:53:18.117Z,94986.3
2019-01-26T04:54:19.991Z,94989.6
2019-01-26T04:55:22.154Z,94990.1
2019-01-26T04:56:24.322Z,94991.2
2019-01-26T04:57:26.204Z,94995.8
2019-01-26T04:58:28.625Z,94991.4
2019-01-26T04:59:30.774Z,94985.3
2019-01-26T05:00:33.190Z,94985.6
2019-01-26T05:01:35.613Z,94983.8
2019-01-26T05:02:37.774Z,94987
2019-01-26T05:03:39.924Z,94987.7
2019-01-26T05:04:42.069Z,94987.3
2019-01-26T05:05:44.495Z,94984.5
2019-01-26T05:06:46.668Z,94983.1
2019-01-26T05:07:49.114Z,94986.1
2019-01-26T05:08:51.555Z,94982.7
2019-01-26T05:09:53.695Z,94977.9
2019-01-26T05:10:56.139Z,94976.5
2019-01-26T05:11:58.584Z,94979.1
2019-01-26T05:13:00.704Z,94979.2
2019-01-26T05:14:02.858Z,94981.7
2019-01-26T05:15:04.997Z,94974
2019-01-26T05:16:07.426Z,94976.1
2019-01-26T05:17:09.570Z,94972.4
2019-01-26T05:18:11.724Z,94964.3
2019-01-26T05:19:14.163Z,94961.5
2019-01-26T05:20:16.595Z,94970.2
2019-01-26T05:21:18.738Z,94965.7
2019-01-26T05:22:20.597Z,94967.4
2019-01-26T05:23:23.017Z,94966.1
2019-01-26T05:24:25.481Z,94953.6
2019-01-26T05:25:27.892Z,94963.6
2019-01-26T05:26:30.316Z,94954.7
2019-01-26T05:27:32.744Z,94963.6
2019-01-26T05:28:35.166Z,94958.8
2019-01-26T05:29:37.296Z,94957.1
2019-01-26T05:30:39.727Z,94958.8
2019-01-26T05:31:41.873Z,94950.4
2019-01-26T05:32:44.304Z,94954.5
2019-01-26T05:33:46.738Z,94954.9
2019-01-26T05:34:48.895Z,94946.8
2019-01-26T05:35:51.064Z,94949.4
2019-01-26T05:36:53.211Z,94948.4
2019-01-26T05:37:55.365Z,94949.8
2019-01-26T05:38:57.507Z,94947
2019-01-26T05:39:59.925Z,94948.4
2019-01-26T05:41:02.345Z,94950.7
2019-01-26T05:42:04.771Z,94948.9
2019-01-26T05:43:07.111Z,94944.2
2019-01-26T05:44:09.283Z,94943
2019-01-26T05:45:11.445Z,94951.6
2019-01-26T05:46:13.587Z,94954
2019-01-26T05:47:15.750Z,94947.4
2019-01-26T05:48:18.177Z,94948.4
2019-01-26T05:49:20.353Z,94948.5
2019-01-26T05:50:22.519Z,94945.9
2019-01-26T05:51:24.680Z,94946
2019-01-26T05:52:26.842Z,94949.7
2019-01-26T05:53:28.734Z,94940.6
2019-01-26T05:54:31.152Z,94942.3
2019-01-26T05:55:33.574Z,94944.6
2019-01-26T05:56:35.733Z,94947.7
2019-01-26T05:57:38.161Z,94940.7
2019-01-26T05:58:40.583Z,94945.6
2019-01-26T05:59:42.729Z,94947.9
2019-01-26T06:00:44.886Z,94947.7
2019-01-26T06:01:47.305Z,94948.9
2019-01-26T06:02:49.463Z,94955.2
2019-01-26T06:03:51.899Z,94948.7
2019-01-26T06:04:54.044Z,94951.5
2019-01-26T06:05:56.185Z,94953.4
2019-01-26T06:06:58.345Z,94954.3
2019-01-26T06:08:00.780Z,94947
2019-01-26T06:09:03.204Z,94960.2
2019-01-26T06:10:05.365Z,94951.7
2019-01-26T06:11:07.786Z,94943.7
2019-01-26T06:12:09.927Z,94955.3
2019-01-26T06:13:12.055Z,94952.4
2019-01-26T06:14:14.488Z,94949.6
2019-01-26T06:15:16.922Z,94948.8
2019-01-26T06:16:19.070Z,94952.2
2019-01-26T06:17:21.236Z,94955.8
2019-01-26T06:18:23.662Z,94957.4
2019-01-26T06:19:26.091Z,94952.9
2019-01-26T06:20:28.503Z,94947.1
2019-01-26T06:21:30.927Z,94950.9
2019-01-26T06:22:33.383Z,94951.6
2019-01-26T06:23:35.805Z,94948.8
2019-01-26T06:24:38.281Z,94953
2019-01-26T06:25:39.844Z,94943.3
2019-01-26T06:26:42.255Z,94943.4
2019-01-26T06:27:44.681Z,94942.1
2019-01-26T06:28:46.805Z,94945.6
2019-01-26T06:29:48.961Z,94940.7
2019-01-26T06:30:50.859Z,94945.6
2019-01-26T06:31:52.986Z,94944.8
2019-01-26T06:32:55.146Z,94941.6
2019-01-26T06:33:57.579Z,94941.3
2019-01-26T06:35:00.003Z,94939.4
2019-01-26T06:36:02.445Z,94936.2
2019-01-26T06:37:04.876Z,94935.6
2019-01-26T06:38:07.029Z,94941.3
2019-01-26T06:39:09.455Z,94937.6
2019-01-26T06:40:11.887Z,94941.2
2019-01-26T06:41:14.413Z,94941.2
2019-01-26T06:42:16.913Z,94940.8
2019-01-26T06:43:19.343Z,94941.8
2019-01-26T06:44:21.465Z,94939.2
2019-01-26T06:45:23.631Z,94942.8
2019-01-26T06:46:25.765Z,94942
2019-01-26T06:47:28.191Z,94943.4
2019-01-26T06:48:30.628Z,94945.7
2019-01-26T06:49:32.776Z,94946.4
2019-01-26T06:50:34.942Z,94945.9
2019-01-26T06:51:37.089Z,94942.6
2019-01-26T06:52:39.516Z,94955.1
2019-01-26T06:53:41.936Z,94950.9
2019-01-26T06:54:44.361Z,94948.5
2019-01-26T06:55:46.793Z,94952.4
2019-01-26T06:56:49.227Z,94955.3
2019-01-26T06:57:51.383Z,94957.7
2019-01-26T06:58:53.540Z,94954.6
2019-01-26T06:59:55.971Z,94965.2
2019-01-26T07:00:58.136Z,94964.9
2019-01-26T07:02:00.264Z,94962.4
2019-01-26T07:03:02.683Z,94963.5
2019-01-26T07:04:05.116Z,94962.6
2019-01-26T07:05:07.541Z,94961
2019-01-26T07:06:09.701Z,94971
2019-01-26T07:07:11.713Z,94959
2019-01-26T07:08:14.147Z,94958.6
2019-01-26T07:09:16.040Z,94963.8
2019-01-26T07:10:18.483Z,94966.7
2019-01-26T07:11:20.907Z,94964.9
2019-01-26T07:12:24.075Z,94967.6
2019-01-26T07:13:26.898Z,94961.9
2019-01-26T07:14:29.336Z,94966.1
2019-01-26T07:15:30.927Z,94966.3
2019-01-26T07:16:33.370Z,94975.3
2019-01-26T07:17:35.560Z,94961
2019-01-26T07:18:38.023Z,94961.9
2019-01-26T07:19:40.199Z,94961.5
2019-01-26T07:20:42.340Z,94958.5
2019-01-26T07:21:44.810Z,94956.6
2019-01-26T07:22:46.961Z,94953
2019-01-26T07:23:49.413Z,94951.2
2019-01-26T07:24:51.848Z,94951.3
2019-01-26T07:25:53.754Z,94949.1
2019-01-26T07:26:55.928Z,94947
2019-01-26T07:27:58.377Z,94956.1
2019-01-26T07:29:00.826Z,94951.5
2019-01-26T07:30:03.269Z,94953
2019-01-26T07:31:07.115Z,94941
2019-01-26T07:32:09.269Z,94957.8
2019-01-26T07:33:11.729Z,94961.3
2019-01-26T07:34:14.155Z,94960.4
2019-01-26T07:35:16.601Z,94956.5
2019-01-26T07:36:19.076Z,94955
2019-01-26T07:37:21.223Z,94957
2019-01-26T07:38:23.512Z,94958.7
2019-01-26T07:39:25.949Z,94959.1
2019-01-26T07:40:28.383Z,94958
2019-01-26T07:41:30.564Z,94964
2019-01-26T07:42:32.989Z,94961.2
2019-01-26T07:43:35.405Z,94962.1
2019-01-26T07:44:37.825Z,94963.2
2019-01-26T07:45:40.252Z,94957.2
2019-01-26T07:46:42.721Z,94961.4
2019-01-26T07:47:45.130Z,94963.3
2019-01-26T07:48:47.426Z,94964.5
2019-01-26T07:49:49.782Z,94961
2019-01-26T07:50:52.371Z,94960.9
2019-01-26T07:51:54.644Z,94964.2
2019-01-26T07:52:57.232Z,94965.7
2019-01-26T07:53:59.450Z,94970.4
2019-01-26T07:55:01.048Z,94960.5
2019-01-26T07:56:03.470Z,94963.5
2019-01-26T07:57:05.605Z,94968.9
2019-01-26T07:58:08.032Z,94964.9
2019-01-26T07:59:10.462Z,94961.7
2019-01-26T08:00:12.895Z,94954.2
2019-01-26T08:01:15.044Z,94961
2019-01-26T08:02:17.557Z,94956.1
2019-01-26T08:03:19.168Z,94957.9
2019-01-26T08:04:21.593Z,94961.2
2019-01-26T08:05:24.035Z,94956.9
2019-01-26T08:06:26.251Z,94956.1
2019-01-26T08:07:28.174Z,94961.5
2019-01-26T08:08:30.642Z,94954.2
2019-01-26T08:09:32.809Z,94955.4
2019-01-26T08:10:34.751Z,94958.8
2019-01-26T08:11:36.927Z,94960.7
2019-01-26T08:12:39.471Z,94959.5
2019-01-26T08:13:41.593Z,94966.6
2019-01-26T08:14:43.775Z,94963
2019-01-26T08:15:45.937Z,94956.9
2019-01-26T08:16:48.371Z,94958.6
2019-01-26T08:17:50.547Z,94963.7
2019-01-26T08:18:52.988Z,94958.7
2019-01-26T08:19:55.154Z,94952.6
2019-01-26T08:20:57.287Z,94952.3
2019-01-26T08:21:59.758Z,94955.2
2019-01-26T08:23:02.179Z,94956.5
2019-01-26T08:24:04.325Z,94956.4
2019-01-26T08:25:06.483Z,94960.7
2019-01-26T08:26:08.363Z,94960.2
2019-01-26T08:27:10.783Z,94963.2
2019-01-26T08:28:12.944Z,94955.3
2019-01-26T08:29:15.089Z,94961.5
2019-01-26T08:30:18.032Z,94960
2019-01-26T08:31:20.235Z,94960.7
2019-01-26T08:32:22.506Z,94953.1
2019-01-26T08:33:24.964Z,94960.1
2019-01-26T08:34:27.162Z,94958.8
2019-01-26T08:35:29.356Z,94960.9
2019-01-26T08:36:31.507Z,94958
2019-01-26T08:37:33.418Z,94959.3
2019-01-26T08:38:35.862Z,94956
2019-01-26T08:39:37.758Z,94960.6
2019-01-26T08:40:40.185Z,94959.7
2019-01-26T08:41:42.630Z,94961.5
2019-01-26T08:42:44.794Z,94960.9
2019-01-26T08:43:47.228Z,94964
2019-01-26T08:44:49.658Z,94963.9
2019-01-26T08:45:51.541Z,94969.2
2019-01-26T08:46:53.998Z,94965.1
2019-01-26T08:47:56.161Z,94964.2
2019-01-26T08:48:58.040Z,94965.6
2019-01-26T08:50:00.782Z,94967.2
2019-01-26T08:51:02.692Z,94973.5
2019-01-26T08:52:05.111Z,94967.3
2019-01-26T08:53:07.253Z,94967.3
2019-01-26T08:54:09.688Z,94974
2019-01-26T08:56:17.092Z,94972.3
2019-01-26T08:57:19.527Z,94975.3
2019-01-26T08:58:21.682Z,94975.6
2019-01-26T08:59:24.119Z,94974.1
2019-01-26T09:00:26.554Z,94979.1
2019-01-26T09:01:28.728Z,94973.2
2019-01-26T09:02:31.153Z,94973.8
2019-01-26T09:03:33.305Z,94979.1
2019-01-26T09:04:35.487Z,94982.2
2019-01-26T09:05:37.931Z,94977.3
2019-01-26T09:06:40.346Z,94974.1
2019-01-26T09:07:42.798Z,94976.3
2019-01-26T09:08:45.281Z,94974.2
2019-01-26T09:09:47.441Z,94978.4
2019-01-26T09:10:49.884Z,94972.1
2019-01-26T09:11:52.024Z,94974.5
2019-01-26T09:12:54.173Z,94973.3
2019-01-26T09:13:56.332Z,94970.9
2019-01-26T09:14:58.213Z,94970.4
2019-01-26T09:16:00.097Z,94974
2019-01-26T09:17:02.360Z,94978.1
2019-01-26T09:18:04.965Z,94973.1
2019-01-26T09:19:07.144Z,94972.5
2019-01-26T09:20:11.716Z,94978.9
2019-01-26T09:21:15.895Z,94978.1
2019-01-26T09:22:18.336Z,94973.3
2019-01-26T09:23:20.490Z,94971.1
2019-01-26T09:24:22.942Z,94978.2
2019-01-26T09:25:24.835Z,94969.6
2019-01-26T09:26:26.970Z,94977.2
2019-01-26T09:27:29.132Z,94977.6
2019-01-26T09:28:31.560Z,94976.4
2019-01-26T09:29:33.706Z,94982.8
2019-01-26T09:30:35.860Z,94983.9
2019-01-26T09:31:38.044Z,94979.7
2019-01-26T09:32:40.213Z,94976
2019-01-26T09:33:42.134Z,94983.2
2019-01-26T09:34:44.582Z,94985.8
2019-01-26T09:35:46.732Z,94978.4
2019-01-26T09:36:48.948Z,94983.1
2019-01-26T09:37:51.370Z,94982.8
2019-01-26T09:38:52.963Z,94978.4
2019-01-26T09:39:55.413Z,94980.3
2019-01-26T09:40:57.855Z,94985.5
2019-01-26T09:42:00.036Z,94986.6
2019-01-26T09:43:02.224Z,94987.6
2019-01-26T09:44:04.402Z,94987
2019-01-26T09:45:06.859Z,94982.2
2019-01-26T09:46:08.514Z,94991.2
2019-01-26T09:47:10.378Z,94980.7
2019-01-26T09:48:12.865Z,94973.8
2019-01-26T09:49:14.773Z,94981.6
2019-01-26T09:50:17.283Z,94986.3
2019-01-26T09:51:19.259Z,94979.2
2019-01-26T09:52:21.461Z,94986.6
2019-01-26T09:53:23.900Z,94992
2019-01-26T09:54:26.336Z,94986.2
2019-01-26T09:55:28.756Z,94987.3
2019-01-26T09:56:30.891Z,94990.5
2019-01-26T09:57:33.320Z,94989.6
2019-01-26T09:58:35.758Z,94989.7
2019-01-26T09:59:37.912Z,94993.1
2019-01-26T10:00:40.342Z,94988.3
2019-01-26T10:01:42.508Z,94989
2019-01-26T10:02:44.944Z,94989.1
2019-01-26T10:03:47.586Z,94993.5
2019-01-26T10:04:51.153Z,94992
2019-01-26T10:05:53.594Z,94987.1
2019-01-26T10:06:56.027Z,94987.7
2019-01-26T10:07:58.444Z,94988.5
2019-01-26T10:09:00.622Z,94988.4
2019-01-26T10:10:03.757Z,94990.9
2019-01-26T10:11:05.911Z,94989.9
2019-01-26T10:12:07.816Z,94989.6
2019-01-26T10:13:09.994Z,94980.9
2019-01-26T10:14:11.884Z,94983.9
2019-01-26T10:15:15.611Z,94982.2
2019-01-26T10:16:17.862Z,94980.8
2019-01-26T10:17:20.014Z,94983.7
2019-01-26T10:18:22.453Z,94985.8
2019-01-26T10:19:24.618Z,94988
2019-01-26T10:20:26.770Z,94982.7
2019-01-26T10:21:28.710Z,94985.7
2019-01-26T10:22:30.612Z,94986.5
2019-01-26T10:23:32.772Z,94982.6
2019-01-26T10:24:34.668Z,94984.3
2019-01-26T10:25:36.839Z,94982.7
2019-01-26T10:26:39.302Z,94984.5
2019-01-26T10:27:41.734Z,94978.8
2019-01-26T10:28:43.612Z,94980.8
2019-01-26T10:29:45.776Z,94972.3
2019-01-26T10:30:48.221Z,94980.6
2019-01-26T10:31:50.422Z,94973.6
2019-01-26T10:32:52.602Z,94976.2
2019-01-26T10:33:55.075Z,94971.4
2019-01-26T10:34:57.274Z,94969.4
2019-01-26T10:35:59.770Z,94961.1
2019-01-26T10:37:01.964Z,94967.8
2019-01-26T10:38:04.199Z,94967.9
2019-01-26T10:39:06.140Z,94964.4
2019-01-26T10:40:08.050Z,94966.8
2019-01-26T10:41:10.218Z,94967.6
2019-01-26T10:42:12.645Z,94963.3
2019-01-26T10:43:14.926Z,94957.6
2019-01-26T10:44:17.394Z,94961.6
2019-01-26T10:45:19.356Z,94957.9
2019-01-26T10:46:21.547Z,94953
2019-01-26T10:47:23.782Z,94955.3
2019-01-26T10:48:26.222Z,94954.1
2019-01-26T10:49:28.642Z,94948.6
2019-01-26T10:50:31.075Z,94945.4
2019-01-26T10:51:33.496Z,94947.5
2019-01-26T10:52:35.936Z,94945.4
2019-01-26T10:53:38.360Z,94943.6
2019-01-26T10:54:40.793Z,94937
2019-01-26T10:55:43.222Z,94941.8
2019-01-26T10:56:45.672Z,94938.1
2019-01-26T10:57:48.107Z,94941.3
2019-01-26T10:58:50.545Z,94938.7
2019-01-26T10:59:53.006Z,94936.9
2019-01-26T11:00:55.448Z,94931.4
2019-01-26T11:01:57.901Z,94928.9
2019-01-26T11:03:00.341Z,94930.7
2019-01-26T11:04:02.768Z,94925.2
2019-01-26T11:05:05.200Z,94924.1
2019-01-26T11:06:07.642Z,94929.8
2019-01-26T11:07:10.108Z,94923.8
2019-01-26T11:08:12.541Z,94926.3
2019-01-26T11:09:14.677Z,94926.5
2019-01-26T11:10:17.104Z,94927.6
2019-01-26T11:11:19.533Z,94921.8
2019-01-26T11:12:21.966Z,94924.1
2019-01-26T11:13:24.127Z,94913.7
2019-01-26T11:14:26.553Z,94911.4
2019-01-26T11:15:28.985Z,94912.6
2019-01-26T11:16:31.428Z,94902.6
2019-01-26T11:17:33.587Z,94905.8
2019-01-26T11:18:36.016Z,94900.8
2019-01-26T11:19:38.188Z,94896.9
2019-01-26T11:20:39.833Z,94901.3
2019-01-26T11:21:42.292Z,94901.4
2019-01-26T11:22:44.205Z,94896.7
2019-01-26T11:23:46.649Z,94900.9
2019-01-26T11:24:49.096Z,94904
2019-01-26T11:25:51.264Z,94897.3
2019-01-26T11:26:53.694Z,94890.2
2019-01-26T11:27:55.851Z,94894.6
2019-01-26T11:28:58.299Z,94897.4
2019-01-26T11:30:00.741Z,94897.3
2019-01-26T11:31:02.905Z,94894.9
2019-01-26T11:32:05.334Z,94894.6
2019-01-26T11:33:07.772Z,94900.7
2019-01-26T11:34:09.946Z,94893.9
2019-01-26T11:35:12.428Z,94896
2019-01-26T11:36:14.854Z,94895.5
2019-01-26T11:37:17.007Z,94896.6
2019-01-26T11:38:19.441Z,94888.8
2019-01-26T11:39:21.609Z,94891.7
2019-01-26T11:40:24.496Z,94885.1
2019-01-26T11:41:26.995Z,94883.9
2019-01-26T11:42:29.422Z,94894.8
2019-01-26T11:43:31.844Z,94886
2019-01-26T11:44:34.263Z,94887.3
2019-01-26T11:45:36.145Z,94888.5
2019-01-26T11:46:38.576Z,94882.3
2019-01-26T11:47:41.014Z,94882.5
2019-01-26T11:48:43.442Z,94880.3
2019-01-26T11:49:45.871Z,94877.3
2019-01-26T11:50:48.292Z,94875.6
2019-01-26T11:51:50.724Z,94872.9
2019-01-26T11:52:53.154Z,94872.2
2019-01-26T11:53:55.315Z,94871.9
2019-01-26T11:54:57.464Z,94873.5
2019-01-26T11:55:59.617Z,94862.9
2019-01-26T11:57:02.044Z,94862.5
2019-01-26T11:58:03.935Z,94865.6
2019-01-26T11:59:06.384Z,94861.6
2019-01-26T12:00:08.292Z,94856.1
2019-01-26T12:01:10.702Z,94855.9
2019-01-26T12:02:13.146Z,94856.4
2019-01-26T12:03:15.011Z,94857.3
2019-01-26T12:04:17.163Z,94855.5
2019-01-26T12:05:19.603Z,94852.4
2019-01-26T12:06:23.589Z,94855.8
2019-01-26T12:07:25.833Z,94851.8
2019-01-26T12:08:27.989Z,94849.8
2019-01-26T12:09:30.464Z,94851.3
2019-01-26T12:10:36.921Z,94844.8
2019-01-26T12:11:39.962Z,94843.1
2019-01-26T12:12:43.311Z,94844.5
2019-01-26T12:13:45.361Z,94842.9
2019-01-26T12:14:54.922Z,94845.2
2019-01-26T12:16:00.308Z,94847.4
2019-01-26T12:17:02.730Z,94846.6
2019-01-26T12:18:04.899Z,94840.9
2019-01-26T12:19:09.784Z,94837.9
2019-01-26T12:20:12.020Z,94836
2019-01-26T12:21:14.460Z,94832.6
2019-01-26T12:22:16.599Z,94832.7
2019-01-26T12:23:20.768Z,94834
2019-01-26T12:24:22.943Z,94832
2019-01-26T12:25:25.378Z,94831.1
2019-01-26T12:26:28.011Z,94835
2019-01-26T12:27:29.933Z,94828.1
2019-01-26T12:28:32.137Z,94834.5
2019-01-26T12:29:34.157Z,94831.4
2019-01-26T12:30:36.374Z,94832.7
2019-01-26T12:31:38.865Z,94827.9
2019-01-26T12:32:41.327Z,94831.8
2019-01-26T12:33:43.765Z,94828.1
2019-01-26T12:34:45.945Z,94830.4
2019-01-26T12:35:48.121Z,94828.2
2019-01-26T12:36:50.041Z,94823
2019-01-26T12:37:52.529Z,94820.2
2019-01-26T12:38:54.699Z,94827.5
2019-01-26T12:39:56.862Z,94828.2
2019-01-26T12:40:59.331Z,94821.8